Station History

Weather Underground - logo

Station Historical Data
Daily Summary for February 1, 2018 Units:  Both    English   Metric
« Previous Day
Next Day »
Daily Weekly Monthly Yearly Custom
  High: Low: Average:
Temperature: 68.5 °F /  20.3 °C 40.6 °F /  4.8 °C 53.3 °F /  11.8 °C
Dew Point: 53.0 °F /  11.7 °C 39.2 °F /  4 °C 46.9 °F /  8.3 °C
Humidity: 96 % 54 % 81 %
Wind Speed: 3.5 mph /  5.6 km/h - 0.3 mph /  0.5 km/h
Wind Gust: 3.5 mph /  5.6 km/h - -
Wind:- - WSW
Pressure: 30.17 in /  1021.6 hPa 30.07 in /  1018.2 hPa -
Precipitation: 0.00 in /  0 mm    
Historical Graphs
 
 
Tabular Data for February 1, 2018
Time Temperature Dew Point Pressure Wind Wind Speed Wind Gust Humidity Rainfall Rate (Hourly)
00:00 45.3 °F /  7.4 °C 43.1 °F /  6.2 °C 30.10 in /  1019.2 hPa Calm     92 % 0.00 in /  0 mm
00:05 45.2 °F /  7.3 °C 43.0 °F /  6.1 °C 30.10 in /  1019.2 hPa Calm     92 % 0.00 in /  0 mm
00:10 45.2 °F /  7.3 °C 43.0 °F /  6.1 °C 30.10 in /  1019.2 hPa Calm     92 % 0.00 in /  0 mm
00:15 45.3 °F /  7.4 °C 43.1 °F /  6.2 °C 30.10 in /  1019.2 hPa Calm     92 % 0.00 in /  0 mm
00:20 45.4 °F /  7.4 °C 43.2 °F /  6.2 °C 30.09 in /  1018.8 hPa Calm     92 % 0.00 in /  0 mm
00:25 45.2 °F /  7.3 °C 43.0 °F /  6.1 °C 30.10 in /  1019.2 hPa Calm     92 % 0.00 in /  0 mm
00:30 45.0 °F /  7.2 °C 42.8 °F /  6 °C 30.10 in /  1019.2 hPa Calm     92 % 0.00 in /  0 mm
00:35 44.8 °F /  7.1 °C 42.6 °F /  5.9 °C 30.10 in /  1019.2 hPa Calm     92 % 0.00 in /  0 mm
00:41 44.7 °F /  7.1 °C 42.5 °F /  5.8 °C 30.09 in /  1018.8 hPa Calm     92 % 0.00 in /  0 mm
00:46 44.5 °F /  6.9 °C 42.3 °F /  5.7 °C 30.09 in /  1018.8 hPa Calm     92 % 0.00 in /  0 mm
00:51 44.4 °F /  6.9 °C 42.2 °F /  5.7 °C 30.09 in /  1018.8 hPa Calm     92 % 0.00 in /  0 mm
00:53 44.3 °F /  6.8 °C 42.1 °F /  5.6 °C 30.09 in /  1018.8 hPa Calm     92 % 0.00 in /  0 mm
00:58 44.2 °F /  6.8 °C 42.0 °F /  5.6 °C 30.09 in /  1018.8 hPa Calm     92 % 0.00 in /  0 mm
01:03 44.1 °F /  6.7 °C 41.9 °F /  5.5 °C 30.09 in /  1018.8 hPa Calm     92 % 0.00 in /  0 mm
01:08 44.0 °F /  6.7 °C 41.8 °F /  5.4 °C 30.09 in /  1018.8 hPa Calm     92 % 0.00 in /  0 mm
01:13 43.9 °F /  6.6 °C 41.7 °F /  5.4 °C 30.09 in /  1018.8 hPa Calm     92 % 0.00 in /  0 mm
01:18 43.8 °F /  6.6 °C 41.6 °F /  5.3 °C 30.09 in /  1018.8 hPa Calm     92 % 0.00 in /  0 mm
01:24 43.9 °F /  6.6 °C 42.0 °F /  5.6 °C 30.09 in /  1018.8 hPa Calm     93 % 0.00 in /  0 mm
01:29 43.8 °F /  6.6 °C 41.9 °F /  5.5 °C 30.09 in /  1018.8 hPa Calm     93 % 0.00 in /  0 mm
01:34 43.6 °F /  6.4 °C 41.7 °F /  5.4 °C 30.10 in /  1019.2 hPa Calm     93 % 0.00 in /  0 mm
01:39 43.7 °F /  6.5 °C 41.8 °F /  5.4 °C 30.10 in /  1019.2 hPa Calm     93 % 0.00 in /  0 mm
01:44 43.9 °F /  6.6 °C 42.3 °F /  5.7 °C 30.10 in /  1019.2 hPa Calm     94 % 0.00 in /  0 mm
01:49 43.9 °F /  6.6 °C 42.3 °F /  5.7 °C 30.10 in /  1019.2 hPa Calm     94 % 0.00 in /  0 mm
01:54 43.8 °F /  6.6 °C 42.2 °F /  5.7 °C 30.10 in /  1019.2 hPa Calm     94 % 0.00 in /  0 mm
01:59 43.8 °F /  6.6 °C 42.2 °F /  5.7 °C 30.11 in /  1019.5 hPa Calm     94 % 0.00 in /  0 mm
02:04 43.9 °F /  6.6 °C 42.3 °F /  5.7 °C 30.10 in /  1019.2 hPa Calm     94 % 0.00 in /  0 mm
02:09 44.1 °F /  6.7 °C 42.5 °F /  5.8 °C 30.11 in /  1019.5 hPa Calm     94 % 0.00 in /  0 mm
02:14 43.9 °F /  6.6 °C 42.3 °F /  5.7 °C 30.11 in /  1019.5 hPa Calm     94 % 0.00 in /  0 mm
02:19 43.8 °F /  6.6 °C 42.2 °F /  5.7 °C 30.10 in /  1019.2 hPa Calm     94 % 0.00 in /  0 mm
02:24 43.7 °F /  6.5 °C 42.1 °F /  5.6 °C 30.11 in /  1019.5 hPa Calm     94 % 0.00 in /  0 mm
02:29 43.6 °F /  6.4 °C 42.0 °F /  5.6 °C 30.10 in /  1019.2 hPa Calm     94 % 0.00 in /  0 mm
02:34 43.5 °F /  6.4 °C 41.9 °F /  5.5 °C 30.11 in /  1019.5 hPa Calm     94 % 0.00 in /  0 mm
02:39 43.6 °F /  6.4 °C 42.0 °F /  5.6 °C 30.10 in /  1019.2 hPa Calm     94 % 0.00 in /  0 mm
02:44 43.5 °F /  6.4 °C 41.9 °F /  5.5 °C 30.11 in /  1019.5 hPa Calm     94 % 0.00 in /  0 mm
02:49 43.4 °F /  6.3 °C 41.8 °F /  5.4 °C 30.11 in /  1019.5 hPa Calm     94 % 0.00 in /  0 mm
02:54 43.5 °F /  6.4 °C 41.9 °F /  5.5 °C 30.11 in /  1019.5 hPa Calm     94 % 0.00 in /  0 mm
02:59 43.4 °F /  6.3 °C 41.8 °F /  5.4 °C 30.10 in /  1019.2 hPa Calm     94 % 0.00 in /  0 mm
03:04 43.8 °F /  6.6 °C 42.5 °F /  5.8 °C 30.10 in /  1019.2 hPa Calm     95 % 0.00 in /  0 mm
03:09 43.8 °F /  6.6 °C 42.5 °F /  5.8 °C 30.10 in /  1019.2 hPa Calm     95 % 0.00 in /  0 mm
03:14 43.8 °F /  6.6 °C 42.5 °F /  5.8 °C 30.10 in /  1019.2 hPa Calm     95 % 0.00 in /  0 mm
03:19 43.8 °F /  6.6 °C 42.5 °F /  5.8 °C 30.10 in /  1019.2 hPa Calm     95 % 0.00 in /  0 mm
03:24 43.9 °F /  6.6 °C 42.6 °F /  5.9 °C 30.10 in /  1019.2 hPa Calm     95 % 0.00 in /  0 mm
03:29 43.9 °F /  6.6 °C 42.6 °F /  5.9 °C 30.10 in /  1019.2 hPa Calm     95 % 0.00 in /  0 mm
03:34 43.9 °F /  6.6 °C 42.6 °F /  5.9 °C 30.10 in /  1019.2 hPa Calm     95 % 0.00 in /  0 mm
03:39 44.0 °F /  6.7 °C 42.7 °F /  5.9 °C 30.10 in /  1019.2 hPa Calm     95 % 0.00 in /  0 mm
03:44 44.1 °F /  6.7 °C 42.8 °F /  6 °C 30.09 in /  1018.8 hPa Calm     95 % 0.00 in /  0 mm
03:49 44.2 °F /  6.8 °C 42.9 °F /  6.1 °C 30.09 in /  1018.8 hPa Calm     95 % 0.00 in /  0 mm
03:54 44.2 °F /  6.8 °C 42.9 °F /  6.1 °C 30.09 in /  1018.8 hPa Calm     95 % 0.00 in /  0 mm
03:59 44.0 °F /  6.7 °C 42.7 °F /  5.9 °C 30.09 in /  1018.8 hPa Calm     95 % 0.00 in /  0 mm
04:04 43.9 °F /  6.6 °C 42.6 °F /  5.9 °C 30.09 in /  1018.8 hPa Calm     95 % 0.00 in /  0 mm
04:09 43.5 °F /  6.4 °C 41.9 °F /  5.5 °C 30.09 in /  1018.8 hPa Calm     94 % 0.00 in /  0 mm
04:14 43.2 °F /  6.2 °C 41.6 °F /  5.3 °C 30.09 in /  1018.8 hPa Calm     94 % 0.00 in /  0 mm
04:19 43.0 °F /  6.1 °C 41.4 °F /  5.2 °C 30.09 in /  1018.8 hPa Calm     94 % 0.00 in /  0 mm
04:24 42.8 °F /  6 °C 41.2 °F /  5.1 °C 30.09 in /  1018.8 hPa Calm     94 % 0.00 in /  0 mm
04:30 42.7 °F /  5.9 °C 41.1 °F /  5.1 °C 30.09 in /  1018.8 hPa Calm     94 % 0.00 in /  0 mm
04:35 42.6 °F /  5.9 °C 41.0 °F /  5 °C 30.09 in /  1018.8 hPa Calm     94 % 0.00 in /  0 mm
04:40 42.4 °F /  5.8 °C 40.8 °F /  4.9 °C 30.09 in /  1018.8 hPa Calm     94 % 0.00 in /  0 mm
04:45 42.3 °F /  5.7 °C 40.7 °F /  4.8 °C 30.09 in /  1018.8 hPa Calm     94 % 0.00 in /  0 mm
04:50 42.3 °F /  5.7 °C 40.7 °F /  4.8 °C 30.09 in /  1018.8 hPa Calm     94 % 0.00 in /  0 mm
04:55 42.2 °F /  5.7 °C 40.6 °F /  4.8 °C 30.09 in /  1018.8 hPa Calm     94 % 0.00 in /  0 mm
05:00 42.0 °F /  5.6 °C 40.4 °F /  4.7 °C 30.09 in /  1018.8 hPa Calm     94 % 0.00 in /  0 mm
05:05 41.9 °F /  5.5 °C 40.3 °F /  4.6 °C 30.10 in /  1019.2 hPa Calm     94 % 0.00 in /  0 mm
05:10 41.9 °F /  5.5 °C 40.3 °F /  4.6 °C 30.10 in /  1019.2 hPa Calm     94 % 0.00 in /  0 mm
05:15 41.9 °F /  5.5 °C 40.3 °F /  4.6 °C 30.09 in /  1018.8 hPa Calm     94 % 0.00 in /  0 mm
05:20 41.8 °F /  5.4 °C 40.2 °F /  4.6 °C 30.10 in /  1019.2 hPa Calm     94 % 0.00 in /  0 mm
05:25 41.7 °F /  5.4 °C 40.1 °F /  4.5 °C 30.09 in /  1018.8 hPa Calm     94 % 0.00 in /  0 mm
05:30 41.9 °F /  5.5 °C 40.6 °F /  4.8 °C 30.09 in /  1018.8 hPa Calm     95 % 0.00 in /  0 mm
05:35 42.2 °F /  5.7 °C 40.9 °F /  4.9 °C 30.10 in /  1019.2 hPa Calm     95 % 0.00 in /  0 mm
05:40 41.9 °F /  5.5 °C 40.3 °F /  4.6 °C 30.10 in /  1019.2 hPa Calm     94 % 0.00 in /  0 mm
05:45 41.5 °F /  5.3 °C 39.9 °F /  4.4 °C 30.10 in /  1019.2 hPa Calm     94 % 0.00 in /  0 mm
05:50 41.4 °F /  5.2 °C 39.8 °F /  4.3 °C 30.10 in /  1019.2 hPa Calm     94 % 0.00 in /  0 mm
05:55 41.3 °F /  5.2 °C 39.7 °F /  4.3 °C 30.10 in /  1019.2 hPa Calm     94 % 0.00 in /  0 mm
06:00 41.2 °F /  5.1 °C 39.6 °F /  4.2 °C 30.10 in /  1019.2 hPa Calm     94 % 0.00 in /  0 mm
06:05 41.0 °F /  5 °C 39.4 °F /  4.1 °C 30.10 in /  1019.2 hPa Calm     94 % 0.00 in /  0 mm
06:10 40.9 °F /  4.9 °C 39.3 °F /  4.1 °C 30.11 in /  1019.5 hPa Calm     94 % 0.00 in /  0 mm
06:15 41.0 °F /  5 °C 39.4 °F /  4.1 °C 30.10 in /  1019.2 hPa Calm     94 % 0.00 in /  0 mm
06:20 40.9 °F /  4.9 °C 39.3 °F /  4.1 °C 30.11 in /  1019.5 hPa Calm     94 % 0.00 in /  0 mm
06:25 40.8 °F /  4.9 °C 39.2 °F /  4 °C 30.11 in /  1019.5 hPa Calm     94 % 0.00 in /  0 mm
06:30 41.1 °F /  5.1 °C 39.8 °F /  4.3 °C 30.11 in /  1019.5 hPa Calm     95 % 0.00 in /  0 mm
06:35 41.0 °F /  5 °C 39.7 °F /  4.3 °C 30.11 in /  1019.5 hPa Calm     95 % 0.00 in /  0 mm
06:40 40.9 °F /  4.9 °C 39.6 °F /  4.2 °C 30.11 in /  1019.5 hPa Calm     95 % 0.00 in /  0 mm
06:45 40.9 °F /  4.9 °C 39.6 °F /  4.2 °C 30.11 in /  1019.5 hPa Calm     95 % 0.00 in /  0 mm
06:50 40.7 °F /  4.8 °C 39.4 °F /  4.1 °C 30.11 in /  1019.5 hPa Calm     95 % 0.00 in /  0 mm
06:55 40.6 °F /  4.8 °C 39.3 °F /  4.1 °C 30.11 in /  1019.5 hPa Calm     95 % 0.00 in /  0 mm
07:00 40.7 °F /  4.8 °C 39.4 °F /  4.1 °C 30.11 in /  1019.5 hPa Calm     95 % 0.00 in /  0 mm
07:05 40.8 °F /  4.9 °C 39.5 °F /  4.2 °C 30.11 in /  1019.5 hPa Calm     95 % 0.00 in /  0 mm
07:10 40.9 °F /  4.9 °C 39.6 °F /  4.2 °C 30.12 in /  1019.9 hPa Calm     95 % 0.00 in /  0 mm
07:15 41.0 °F /  5 °C 39.7 °F /  4.3 °C 30.12 in /  1019.9 hPa Calm     95 % 0.00 in /  0 mm
07:20 41.4 °F /  5.2 °C 40.1 °F /  4.5 °C 30.12 in /  1019.9 hPa Calm     95 % 0.00 in /  0 mm
07:25 41.7 °F /  5.4 °C 40.6 °F /  4.8 °C 30.12 in /  1019.9 hPa Calm     96 % 0.00 in /  0 mm
07:30 41.8 °F /  5.4 °C 40.7 °F /  4.8 °C 30.12 in /  1019.9 hPa Calm     96 % 0.00 in /  0 mm
07:35 42.2 °F /  5.7 °C 41.1 °F /  5.1 °C 30.12 in /  1019.9 hPa Calm     96 % 0.00 in /  0 mm
07:40 42.4 °F /  5.8 °C 41.3 °F /  5.2 °C 30.12 in /  1019.9 hPa Calm     96 % 0.00 in /  0 mm
07:45 42.8 °F /  6 °C 41.7 °F /  5.4 °C 30.12 in /  1019.9 hPa Calm     96 % 0.00 in /  0 mm
07:50 43.2 °F /  6.2 °C 42.1 °F /  5.6 °C 30.12 in /  1019.9 hPa Calm     96 % 0.00 in /  0 mm
07:55 43.5 °F /  6.4 °C 42.4 °F /  5.8 °C 30.12 in /  1019.9 hPa Calm     96 % 0.00 in /  0 mm
08:00 43.8 °F /  6.6 °C 42.7 °F /  5.9 °C 30.13 in /  1020.2 hPa Calm     96 % 0.00 in /  0 mm
08:05 44.3 °F /  6.8 °C 43.2 °F /  6.2 °C 30.13 in /  1020.2 hPa Calm     96 % 0.00 in /  0 mm
08:10 45.1 °F /  7.3 °C 44.0 °F /  6.7 °C 30.13 in /  1020.2 hPa Calm     96 % 0.00 in /  0 mm
08:15 45.5 °F /  7.5 °C 44.4 °F /  6.9 °C 30.14 in /  1020.5 hPa Calm     96 % 0.00 in /  0 mm
08:20 46.1 °F /  7.8 °C 45.0 °F /  7.2 °C 30.14 in /  1020.5 hPa Calm     96 % 0.00 in /  0 mm
08:25 46.8 °F /  8.2 °C 45.7 °F /  7.6 °C 30.14 in /  1020.5 hPa Calm     96 % 0.00 in /  0 mm
08:30 47.5 °F /  8.6 °C 46.4 °F /  8 °C 30.14 in /  1020.5 hPa Calm     96 % 0.00 in /  0 mm
08:35 48.2 °F /  9 °C 47.1 °F /  8.4 °C 30.15 in /  1020.9 hPa Calm     96 % 0.00 in /  0 mm
08:40 48.8 °F /  9.3 °C 47.7 °F /  8.7 °C 30.15 in /  1020.9 hPa Calm     96 % 0.00 in /  0 mm
08:45 49.6 °F /  9.8 °C 48.5 °F /  9.2 °C 30.15 in /  1020.9 hPa Calm     96 % 0.00 in /  0 mm
08:50 50.2 °F /  10.1 °C 48.8 °F /  9.3 °C 30.15 in /  1020.9 hPa Calm     95 % 0.00 in /  0 mm
08:55 51.0 °F /  10.6 °C 49.0 °F /  9.4 °C 30.16 in /  1021.2 hPa Calm     93 % 0.00 in /  0 mm
09:00 51.7 °F /  10.9 °C 49.2 °F /  9.6 °C 30.16 in /  1021.2 hPa Calm     91 % 0.00 in /  0 mm
09:06 52.7 °F /  11.5 °C 49.8 °F /  9.9 °C 30.16 in /  1021.2 hPa SSE 1.2 mph /  1.9 km/h   90 % 0.00 in /  0 mm
09:11 53.6 °F /  12 °C 49.8 °F /  9.9 °C 30.16 in /  1021.2 hPa SSE 2.3 mph /  3.7 km/h 2.3 mph /  3.7 km/h 87 % 0.00 in /  0 mm
09:16 54.0 °F /  12.2 °C 49.9 °F /  9.9 °C 30.16 in /  1021.2 hPa Calm     86 % 0.00 in /  0 mm
09:21 54.5 °F /  12.5 °C 50.1 °F /  10.1 °C 30.16 in /  1021.2 hPa Calm     85 % 0.00 in /  0 mm
09:26 55.1 °F /  12.8 °C 50.0 °F /  10 °C 30.16 in /  1021.2 hPa Calm     83 % 0.00 in /  0 mm
09:31 55.1 °F /  12.8 °C 49.4 °F /  9.7 °C 30.17 in /  1021.6 hPa NW 2.3 mph /  3.7 km/h 2.3 mph /  3.7 km/h 81 % 0.00 in /  0 mm
09:36 55.3 °F /  12.9 °C 49.9 °F /  9.9 °C 30.16 in /  1021.2 hPa Calm     82 % 0.00 in /  0 mm
09:41 55.7 °F /  13.2 °C 50.0 °F /  10 °C 30.17 in /  1021.6 hPa Calm     81 % 0.00 in /  0 mm
09:46 56.1 °F /  13.4 °C 49.7 °F /  9.8 °C 30.16 in /  1021.2 hPa Calm   0.1 mph /  0.2 km/h 79 % 0.00 in /  0 mm
09:51 55.9 °F /  13.3 °C 49.1 °F /  9.5 °C 30.16 in /  1021.2 hPa NW 1.2 mph /  1.9 km/h   78 % 0.00 in /  0 mm
09:56 56.0 °F /  13.3 °C 49.2 °F /  9.6 °C 30.16 in /  1021.2 hPa Calm     78 % 0.00 in /  0 mm
10:01 56.7 °F /  13.7 °C 50.3 °F /  10.2 °C 30.16 in /  1021.2 hPa West 1.2 mph /  1.9 km/h 1.2 mph /  1.9 km/h 79 % 0.00 in /  0 mm
10:06 57.4 °F /  14.1 °C 50.2 °F /  10.1 °C 30.16 in /  1021.2 hPa Calm     77 % 0.00 in /  0 mm
10:11 58.0 °F /  14.4 °C 49.8 °F /  9.9 °C 30.16 in /  1021.2 hPa Calm     74 % 0.00 in /  0 mm
10:16 58.4 °F /  14.7 °C 50.9 °F /  10.5 °C 30.16 in /  1021.2 hPa South 1.2 mph /  1.9 km/h   76 % 0.00 in /  0 mm
10:21 59.1 °F /  15.1 °C 50.8 °F /  10.4 °C 30.16 in /  1021.2 hPa SE 1.2 mph /  1.9 km/h 1.2 mph /  1.9 km/h 74 % 0.00 in /  0 mm
10:26 59.9 °F /  15.5 °C 51.2 °F /  10.7 °C 30.16 in /  1021.2 hPa Calm     73 % 0.00 in /  0 mm
10:31 60.6 °F /  15.9 °C 51.1 °F /  10.6 °C 30.15 in /  1020.9 hPa Calm     71 % 0.00 in /  0 mm
10:36 61.2 °F /  16.2 °C 51.7 °F /  10.9 °C 30.15 in /  1020.9 hPa Calm     71 % 0.00 in /  0 mm
10:41 61.3 °F /  16.3 °C 50.6 °F /  10.3 °C 30.15 in /  1020.9 hPa Calm     68 % 0.00 in /  0 mm
10:46 61.1 °F /  16.2 °C 51.2 °F /  10.7 °C 30.15 in /  1020.9 hPa Calm     70 % 0.00 in /  0 mm
10:51 61.9 °F /  16.6 °C 51.6 °F /  10.9 °C 30.15 in /  1020.9 hPa SW 1.0 mph /  1.6 km/h   69 % 0.00 in /  0 mm
10:56 62.4 °F /  16.9 °C 51.3 °F /  10.7 °C 30.15 in /  1020.9 hPa Calm   0.1 mph /  0.2 km/h 67 % 0.00 in /  0 mm
11:01 62.3 °F /  16.8 °C 50.8 °F /  10.4 °C 30.14 in /  1020.5 hPa Calm     66 % 0.00 in /  0 mm
11:06 62.6 °F /  17 °C 52.3 °F /  11.3 °C 30.14 in /  1020.5 hPa Calm     69 % 0.00 in /  0 mm
11:11 63.5 °F /  17.5 °C 51.9 °F /  11.1 °C 30.14 in /  1020.5 hPa SSW 3.5 mph /  5.6 km/h 3.5 mph /  5.6 km/h 66 % 0.00 in /  0 mm
11:16 64.0 °F /  17.8 °C 51.6 °F /  10.9 °C 30.14 in /  1020.5 hPa ENE 2.3 mph /  3.7 km/h 2.3 mph /  3.7 km/h 64 % 0.00 in /  0 mm
11:21 64.2 °F /  17.9 °C 51.8 °F /  11 °C 30.13 in /  1020.2 hPa Calm     64 % 0.00 in /  0 mm
11:26 64.4 °F /  18 °C 52.0 °F /  11.1 °C 30.13 in /  1020.2 hPa SE 1.2 mph /  1.9 km/h   64 % 0.00 in /  0 mm
11:31 64.4 °F /  18 °C 52.4 °F /  11.3 °C 30.13 in /  1020.2 hPa WNW 1.2 mph /  1.9 km/h 1.2 mph /  1.9 km/h 65 % 0.00 in /  0 mm
11:36 64.5 °F /  18.1 °C 51.6 °F /  10.9 °C 30.13 in /  1020.2 hPa NW 2.0 mph /  3.2 km/h 2.0 mph /  3.2 km/h 63 % 0.00 in /  0 mm
11:41 64.4 °F /  18 °C 52.0 °F /  11.1 °C 30.13 in /  1020.2 hPa NNW 1.2 mph /  1.9 km/h 1.2 mph /  1.9 km/h 64 % 0.00 in /  0 mm
11:46 64.9 °F /  18.3 °C 52.8 °F /  11.6 °C 30.12 in /  1019.9 hPa NW 1.2 mph /  1.9 km/h 1.2 mph /  1.9 km/h 65 % 0.00 in /  0 mm
11:51 64.8 °F /  18.2 °C 52.3 °F /  11.3 °C 30.12 in /  1019.9 hPa West 1.2 mph /  1.9 km/h 1.2 mph /  1.9 km/h 64 % 0.00 in /  0 mm
11:56 64.9 °F /  18.3 °C 52.4 °F /  11.3 °C 30.12 in /  1019.9 hPa ESE 1.2 mph /  1.9 km/h 1.2 mph /  1.9 km/h 64 % 0.00 in /  0 mm
12:01 65.2 °F /  18.4 °C 52.3 °F /  11.3 °C 30.12 in /  1019.9 hPa Calm     63 % 0.00 in /  0 mm
12:06 65.5 °F /  18.6 °C 52.6 °F /  11.4 °C 30.11 in /  1019.5 hPa East 2.3 mph /  3.7 km/h 2.3 mph /  3.7 km/h 63 % 0.00 in /  0 mm
12:11 65.6 °F /  18.7 °C 52.7 °F /  11.5 °C 30.11 in /  1019.5 hPa ESE 1.2 mph /  1.9 km/h   63 % 0.00 in /  0 mm
12:16 66.0 °F /  18.9 °C 52.2 °F /  11.2 °C 30.11 in /  1019.5 hPa NW 1.2 mph /  1.9 km/h   61 % 0.00 in /  0 mm
12:21 65.5 °F /  18.6 °C 52.1 °F /  11.2 °C 30.11 in /  1019.5 hPa NW 1.2 mph /  1.9 km/h 1.2 mph /  1.9 km/h 62 % 0.00 in /  0 mm
12:26 65.7 °F /  18.7 °C 52.3 °F /  11.3 °C 30.10 in /  1019.2 hPa Calm     62 % 0.00 in /  0 mm
12:31 66.2 °F /  19 °C 52.3 °F /  11.3 °C 30.10 in /  1019.2 hPa ESE 1.2 mph /  1.9 km/h 1.2 mph /  1.9 km/h 61 % 0.00 in /  0 mm
12:36 66.1 °F /  18.9 °C 51.8 °F /  11 °C 30.10 in /  1019.2 hPa Calm     60 % 0.00 in /  0 mm
12:41 66.0 °F /  18.9 °C 51.7 °F /  10.9 °C 30.10 in /  1019.2 hPa Calm     60 % 0.00 in /  0 mm
12:46 65.9 °F /  18.8 °C 52.9 °F /  11.6 °C 30.09 in /  1018.8 hPa SE 1.2 mph /  1.9 km/h 1.2 mph /  1.9 km/h 63 % 0.00 in /  0 mm
12:51 66.4 °F /  19.1 °C 52.1 °F /  11.2 °C 30.10 in /  1019.2 hPa NW 2.3 mph /  3.7 km/h 2.3 mph /  3.7 km/h 60 % 0.00 in /  0 mm
12:56 66.9 °F /  19.4 °C 53.0 °F /  11.7 °C 30.09 in /  1018.8 hPa Calm     61 % 0.00 in /  0 mm
13:01 67.2 °F /  19.6 °C 51.4 °F /  10.8 °C 30.09 in /  1018.8 hPa WNW 2.3 mph /  3.7 km/h 2.3 mph /  3.7 km/h 57 % 0.00 in /  0 mm
13:06 67.1 °F /  19.5 °C 51.4 °F /  10.8 °C 30.09 in /  1018.8 hPa Calm     57 % 0.00 in /  0 mm
13:11 67.2 °F /  19.6 °C 52.4 °F /  11.3 °C 30.09 in /  1018.8 hPa NNW 2.3 mph /  3.7 km/h 2.3 mph /  3.7 km/h 59 % 0.00 in /  0 mm
13:16 67.3 °F /  19.6 °C 52.0 °F /  11.1 °C 30.09 in /  1018.8 hPa WNW 1.2 mph /  1.9 km/h 1.2 mph /  1.9 km/h 58 % 0.00 in /  0 mm
13:21 67.5 °F /  19.7 °C 51.7 °F /  10.9 °C 30.09 in /  1018.8 hPa NW 1.2 mph /  1.9 km/h 1.2 mph /  1.9 km/h 57 % 0.00 in /  0 mm
13:26 67.7 °F /  19.8 °C 51.4 °F /  10.8 °C 30.09 in /  1018.8 hPa West 2.3 mph /  3.7 km/h 2.3 mph /  3.7 km/h 56 % 0.00 in /  0 mm
13:31 67.8 °F /  19.9 °C 50.5 °F /  10.3 °C 30.09 in /  1018.8 hPa NNE 1.2 mph /  1.9 km/h   54 % 0.00 in /  0 mm
13:36 67.9 °F /  19.9 °C 51.1 °F /  10.6 °C 30.09 in /  1018.8 hPa WNW 1.2 mph /  1.9 km/h   55 % 0.00 in /  0 mm
13:41 68.1 °F /  20.1 °C 51.3 °F /  10.7 °C 30.08 in /  1018.5 hPa NW 1.2 mph /  1.9 km/h 1.2 mph /  1.9 km/h 55 % 0.00 in /  0 mm
13:46 68.0 °F /  20 °C 51.2 °F /  10.7 °C 30.08 in /  1018.5 hPa SW 1.2 mph /  1.9 km/h 1.2 mph /  1.9 km/h 55 % 0.00 in /  0 mm
13:51 67.9 °F /  19.9 °C 51.1 °F /  10.6 °C 30.08 in /  1018.5 hPa Calm     55 % 0.00 in /  0 mm
13:56 68.1 °F /  20.1 °C 51.8 °F /  11 °C 30.08 in /  1018.5 hPa NW 1.2 mph /  1.9 km/h 1.2 mph /  1.9 km/h 56 % 0.00 in /  0 mm
14:01 68.1 °F /  20.1 °C 51.3 °F /  10.7 °C 30.08 in /  1018.5 hPa NW 2.3 mph /  3.7 km/h 2.3 mph /  3.7 km/h 55 % 0.00 in /  0 mm
14:06 68.0 °F /  20 °C 50.7 °F /  10.4 °C 30.08 in /  1018.5 hPa Calm     54 % 0.00 in /  0 mm
14:11 68.1 °F /  20.1 °C 51.3 °F /  10.7 °C 30.08 in /  1018.5 hPa West 1.2 mph /  1.9 km/h 1.2 mph /  1.9 km/h 55 % 0.00 in /  0 mm
14:16 68.2 °F /  20.1 °C 50.9 °F /  10.5 °C 30.08 in /  1018.5 hPa West 2.3 mph /  3.7 km/h 2.3 mph /  3.7 km/h 54 % 0.00 in /  0 mm
14:21 68.3 °F /  20.2 °C 51.0 °F /  10.6 °C 30.08 in /  1018.5 hPa SE 1.2 mph /  1.9 km/h 1.2 mph /  1.9 km/h 54 % 0.00 in /  0 mm
14:46 68.5 °F /  20.3 °C 51.7 °F /  10.9 °C 30.08 in /  1018.5 hPa WNW 2.3 mph /  3.7 km/h 2.3 mph /  3.7 km/h 55 % 0.00 in /  0 mm
14:51 68.3 °F /  20.2 °C 51.5 °F /  10.8 °C 30.08 in /  1018.5 hPa NNW 1.2 mph /  1.9 km/h 1.2 mph /  1.9 km/h 55 % 0.00 in /  0 mm
14:56 68.3 °F /  20.2 °C 52.5 °F /  11.4 °C 30.08 in /  1018.5 hPa North 2.3 mph /  3.7 km/h 2.3 mph /  3.7 km/h 57 % 0.00 in /  0 mm
15:01 68.1 °F /  20.1 °C 52.3 °F /  11.3 °C 30.08 in /  1018.5 hPa NW 2.3 mph /  3.7 km/h 2.3 mph /  3.7 km/h 57 % 0.00 in /  0 mm
15:06 68.1 °F /  20.1 °C 52.3 °F /  11.3 °C 30.08 in /  1018.5 hPa WNW 1.0 mph /  1.6 km/h   57 % 0.00 in /  0 mm
15:11 68.1 °F /  20.1 °C 52.3 °F /  11.3 °C 30.08 in /  1018.5 hPa Calm     57 % 0.00 in /  0 mm
15:16 68.1 °F /  20.1 °C 52.3 °F /  11.3 °C 30.08 in /  1018.5 hPa NW 1.2 mph /  1.9 km/h   57 % 0.00 in /  0 mm
15:21 67.9 °F /  19.9 °C 51.6 °F /  10.9 °C 30.08 in /  1018.5 hPa Calm     56 % 0.00 in /  0 mm
15:26 67.8 °F /  19.9 °C 52.0 °F /  11.1 °C 30.08 in /  1018.5 hPa West 1.2 mph /  1.9 km/h   57 % 0.00 in /  0 mm
15:31 67.7 °F /  19.8 °C 52.4 °F /  11.3 °C 30.08 in /  1018.5 hPa NW 1.2 mph /  1.9 km/h 1.2 mph /  1.9 km/h 58 % 0.00 in /  0 mm
15:36 67.6 °F /  19.8 °C 51.8 °F /  11 °C 30.07 in /  1018.2 hPa WNW 1.2 mph /  1.9 km/h   57 % 0.00 in /  0 mm
15:41 67.5 °F /  19.7 °C 51.7 °F /  10.9 °C 30.08 in /  1018.5 hPa Calm     57 % 0.00 in /  0 mm
15:46 67.5 °F /  19.7 °C 52.7 °F /  11.5 °C 30.08 in /  1018.5 hPa Calm     59 % 0.00 in /  0 mm
15:51 67.4 °F /  19.7 °C 52.1 °F /  11.2 °C 30.08 in /  1018.5 hPa WNW 1.0 mph /  1.6 km/h 1.0 mph /  1.6 km/h 58 % 0.00 in /  0 mm
15:56 67.2 °F /  19.6 °C 51.9 °F /  11.1 °C 30.08 in /  1018.5 hPa Calm     58 % 0.00 in /  0 mm
16:01 67.1 °F /  19.5 °C 52.3 °F /  11.3 °C 30.08 in /  1018.5 hPa Calm     59 % 0.00 in /  0 mm
16:06 67.1 °F /  19.5 °C 51.8 °F /  11 °C 30.08 in /  1018.5 hPa NW 1.2 mph /  1.9 km/h   58 % 0.00 in /  0 mm
16:11 67.0 °F /  19.4 °C 52.2 °F /  11.2 °C 30.08 in /  1018.5 hPa NNW 1.2 mph /  1.9 km/h   59 % 0.00 in /  0 mm
16:16 66.9 °F /  19.4 °C 51.6 °F /  10.9 °C 30.08 in /  1018.5 hPa Calm     58 % 0.00 in /  0 mm
16:21 66.8 °F /  19.3 °C 52.0 °F /  11.1 °C 30.08 in /  1018.5 hPa Calm     59 % 0.00 in /  0 mm
16:26 66.7 °F /  19.3 °C 52.4 °F /  11.3 °C 30.08 in /  1018.5 hPa Calm     60 % 0.00 in /  0 mm
16:31 66.5 °F /  19.2 °C 52.2 °F /  11.2 °C 30.08 in /  1018.5 hPa Calm     60 % 0.00 in /  0 mm
16:36 66.2 °F /  19 °C 52.3 °F /  11.3 °C 30.08 in /  1018.5 hPa Calm     61 % 0.00 in /  0 mm
16:41 66.1 °F /  18.9 °C 51.8 °F /  11 °C 30.08 in /  1018.5 hPa Calm     60 % 0.00 in /  0 mm
16:46 65.7 °F /  18.7 °C 51.9 °F /  11.1 °C 30.08 in /  1018.5 hPa Calm     61 % 0.00 in /  0 mm
16:51 65.2 °F /  18.4 °C 51.4 °F /  10.8 °C 30.08 in /  1018.5 hPa Calm     61 % 0.00 in /  0 mm
16:56 64.7 °F /  18.2 °C 51.4 °F /  10.8 °C 30.08 in /  1018.5 hPa Calm     62 % 0.00 in /  0 mm
17:01 64.4 °F /  18 °C 51.1 °F /  10.6 °C 30.09 in /  1018.8 hPa Calm     62 % 0.00 in /  0 mm
17:06 64.1 °F /  17.8 °C 51.2 °F /  10.7 °C 30.09 in /  1018.8 hPa Calm     63 % 0.00 in /  0 mm
17:11 63.7 °F /  17.6 °C 50.9 °F /  10.5 °C 30.09 in /  1018.8 hPa Calm     63 % 0.00 in /  0 mm
17:16 63.5 °F /  17.5 °C 50.7 °F /  10.4 °C 30.09 in /  1018.8 hPa Calm     63 % 0.00 in /  0 mm
17:21 63.1 °F /  17.3 °C 50.7 °F /  10.4 °C 30.09 in /  1018.8 hPa Calm     64 % 0.00 in /  0 mm
17:26 62.6 °F /  17 °C 50.7 °F /  10.4 °C 30.09 in /  1018.8 hPa Calm     65 % 0.00 in /  0 mm
17:31 62.1 °F /  16.7 °C 50.6 °F /  10.3 °C 30.09 in /  1018.8 hPa Calm     66 % 0.00 in /  0 mm
17:36 61.9 °F /  16.6 °C 50.4 °F /  10.2 °C 30.09 in /  1018.8 hPa Calm     66 % 0.00 in /  0 mm
17:41 61.7 °F /  16.5 °C 50.2 °F /  10.1 °C 30.10 in /  1019.2 hPa Calm     66 % 0.00 in /  0 mm
17:46 61.5 °F /  16.4 °C 50.4 °F /  10.2 °C 30.10 in /  1019.2 hPa Calm     67 % 0.00 in /  0 mm
17:51 61.3 °F /  16.3 °C 50.2 °F /  10.1 °C 30.10 in /  1019.2 hPa Calm     67 % 0.00 in /  0 mm
17:56 61.0 °F /  16.1 °C 50.0 °F /  10 °C 30.10 in /  1019.2 hPa Calm     67 % 0.00 in /  0 mm
18:01 60.5 °F /  15.8 °C 50.3 °F /  10.2 °C 30.10 in /  1019.2 hPa Calm     69 % 0.00 in /  0 mm
18:06 59.8 °F /  15.4 °C 50.4 °F /  10.2 °C 30.11 in /  1019.5 hPa Calm     71 % 0.00 in /  0 mm
18:11 59.4 °F /  15.2 °C 50.0 °F /  10 °C 30.11 in /  1019.5 hPa Calm     71 % 0.00 in /  0 mm
18:17 59.0 °F /  15 °C 50.0 °F /  10 °C 30.11 in /  1019.5 hPa Calm     72 % 0.00 in /  0 mm
18:22 58.4 °F /  14.7 °C 49.8 °F /  9.9 °C 30.11 in /  1019.5 hPa Calm     73 % 0.00 in /  0 mm
18:27 57.9 °F /  14.4 °C 49.7 °F /  9.8 °C 30.11 in /  1019.5 hPa Calm     74 % 0.00 in /  0 mm
18:32 57.5 °F /  14.2 °C 49.6 °F /  9.8 °C 30.11 in /  1019.5 hPa Calm     75 % 0.00 in /  0 mm
18:37 57.1 °F /  13.9 °C 49.6 °F /  9.8 °C 30.11 in /  1019.5 hPa Calm     76 % 0.00 in /  0 mm
18:42 56.6 °F /  13.7 °C 49.1 °F /  9.5 °C 30.11 in /  1019.5 hPa Calm     76 % 0.00 in /  0 mm
18:47 56.1 °F /  13.4 °C 49.0 °F /  9.4 °C 30.11 in /  1019.5 hPa Calm     77 % 0.00 in /  0 mm
18:52 55.7 °F /  13.2 °C 48.9 °F /  9.4 °C 30.12 in /  1019.9 hPa Calm     78 % 0.00 in /  0 mm
18:57 55.7 °F /  13.2 °C 49.3 °F /  9.6 °C 30.12 in /  1019.9 hPa Calm     79 % 0.00 in /  0 mm
19:02 55.0 °F /  12.8 °C 48.9 °F /  9.4 °C 30.12 in /  1019.9 hPa Calm     80 % 0.00 in /  0 mm
19:07 54.3 °F /  12.4 °C 48.6 °F /  9.2 °C 30.12 in /  1019.9 hPa Calm     81 % 0.00 in /  0 mm
19:12 54.0 °F /  12.2 °C 49.0 °F /  9.4 °C 30.12 in /  1019.9 hPa Calm     83 % 0.00 in /  0 mm
19:17 54.3 °F /  12.4 °C 49.2 °F /  9.6 °C 30.12 in /  1019.9 hPa Calm     83 % 0.00 in /  0 mm
19:22 54.7 °F /  12.6 °C 49.3 °F /  9.6 °C 30.12 in /  1019.9 hPa Calm     82 % 0.00 in /  0 mm
19:27 54.8 °F /  12.7 °C 49.1 °F /  9.5 °C 30.12 in /  1019.9 hPa Calm     81 % 0.00 in /  0 mm
19:32 54.9 °F /  12.7 °C 49.2 °F /  9.6 °C 30.12 in /  1019.9 hPa Calm     81 % 0.00 in /  0 mm
19:37 54.8 °F /  12.7 °C 49.1 °F /  9.5 °C 30.13 in /  1020.2 hPa Calm     81 % 0.00 in /  0 mm
19:42 54.6 °F /  12.6 °C 48.9 °F /  9.4 °C 30.13 in /  1020.2 hPa Calm     81 % 0.00 in /  0 mm
19:47 54.3 °F /  12.4 °C 48.9 °F /  9.4 °C 30.13 in /  1020.2 hPa Calm     82 % 0.00 in /  0 mm
19:52 53.9 °F /  12.2 °C 48.5 °F /  9.2 °C 30.13 in /  1020.2 hPa Calm     82 % 0.00 in /  0 mm
19:57 53.7 °F /  12.1 °C 48.7 °F /  9.3 °C 30.13 in /  1020.2 hPa Calm     83 % 0.00 in /  0 mm
20:02 53.7 °F /  12.1 °C 49.0 °F /  9.4 °C 30.14 in /  1020.5 hPa Calm     84 % 0.00 in /  0 mm
20:07 53.7 °F /  12.1 °C 49.0 °F /  9.4 °C 30.14 in /  1020.5 hPa Calm     84 % 0.00 in /  0 mm
20:12 53.7 °F /  12.1 °C 49.0 °F /  9.4 °C 30.14 in /  1020.5 hPa Calm     84 % 0.00 in /  0 mm
20:17 53.8 °F /  12.1 °C 49.4 °F /  9.7 °C 30.14 in /  1020.5 hPa Calm     85 % 0.00 in /  0 mm
20:22 53.8 °F /  12.1 °C 49.4 °F /  9.7 °C 30.14 in /  1020.5 hPa Calm     85 % 0.00 in /  0 mm
20:27 53.8 °F /  12.1 °C 49.4 °F /  9.7 °C 30.14 in /  1020.5 hPa Calm     85 % 0.00 in /  0 mm
20:32 53.8 °F /  12.1 °C 49.4 °F /  9.7 °C 30.15 in /  1020.9 hPa Calm     85 % 0.00 in /  0 mm
20:37 53.7 °F /  12.1 °C 49.0 °F /  9.4 °C 30.15 in /  1020.9 hPa Calm     84 % 0.00 in /  0 mm
20:42 53.5 °F /  11.9 °C 49.1 °F /  9.5 °C 30.15 in /  1020.9 hPa Calm     85 % 0.00 in /  0 mm
20:47 53.2 °F /  11.8 °C 48.8 °F /  9.3 °C 30.15 in /  1020.9 hPa Calm     85 % 0.00 in /  0 mm
20:52 52.9 °F /  11.6 °C 48.5 °F /  9.2 °C 30.15 in /  1020.9 hPa Calm     85 % 0.00 in /  0 mm
20:57 52.7 °F /  11.5 °C 48.6 °F /  9.2 °C 30.15 in /  1020.9 hPa Calm     86 % 0.00 in /  0 mm
21:02 52.4 °F /  11.3 °C 48.3 °F /  9.1 °C 30.16 in /  1021.2 hPa Calm     86 % 0.00 in /  0 mm
21:07 52.0 °F /  11.1 °C 47.9 °F /  8.8 °C 30.16 in /  1021.2 hPa Calm     86 % 0.00 in /  0 mm
21:12 51.7 °F /  10.9 °C 48.0 °F /  8.9 °C 30.16 in /  1021.2 hPa Calm     87 % 0.00 in /  0 mm
21:17 51.4 °F /  10.8 °C 47.7 °F /  8.7 °C 30.16 in /  1021.2 hPa Calm     87 % 0.00 in /  0 mm
21:22 51.3 °F /  10.7 °C 47.9 °F /  8.8 °C 30.16 in /  1021.2 hPa Calm     88 % 0.00 in /  0 mm
21:27 51.2 °F /  10.7 °C 47.8 °F /  8.8 °C 30.16 in /  1021.2 hPa Calm     88 % 0.00 in /  0 mm
21:32 51.2 °F /  10.7 °C 47.8 °F /  8.8 °C 30.16 in /  1021.2 hPa Calm     88 % 0.00 in /  0 mm
21:37 51.2 °F /  10.7 °C 48.1 °F /  8.9 °C 30.16 in /  1021.2 hPa Calm     89 % 0.00 in /  0 mm
21:42 51.3 °F /  10.7 °C 48.2 °F /  9 °C 30.16 in /  1021.2 hPa Calm     89 % 0.00 in /  0 mm
21:47 51.5 °F /  10.8 °C 48.4 °F /  9.1 °C 30.16 in /  1021.2 hPa Calm     89 % 0.00 in /  0 mm
21:52 51.5 °F /  10.8 °C 48.1 °F /  8.9 °C 30.17 in /  1021.6 hPa Calm     88 % 0.00 in /  0 mm
21:57 51.6 °F /  10.9 °C 48.2 °F /  9 °C 30.17 in /  1021.6 hPa Calm     88 % 0.00 in /  0 mm
22:02 51.7 °F /  10.9 °C 48.0 °F /  8.9 °C 30.17 in /  1021.6 hPa Calm     87 % 0.00 in /  0 mm
22:07 51.5 °F /  10.8 °C 47.8 °F /  8.8 °C 30.17 in /  1021.6 hPa Calm     87 % 0.00 in /  0 mm
22:12 51.3 °F /  10.7 °C 47.6 °F /  8.7 °C 30.17 in /  1021.6 hPa Calm     87 % 0.00 in /  0 mm
22:17 51.0 °F /  10.6 °C 47.3 °F /  8.5 °C 30.17 in /  1021.6 hPa Calm     87 % 0.00 in /  0 mm
22:22 50.8 °F /  10.4 °C 47.4 °F /  8.6 °C 30.17 in /  1021.6 hPa Calm     88 % 0.00 in /  0 mm
22:32 50.4 °F /  10.2 °C 47.0 °F /  8.3 °C 30.16 in /  1021.2 hPa Calm     88 % 0.00 in /  0 mm
22:37 50.2 °F /  10.1 °C 46.8 °F /  8.2 °C 30.17 in /  1021.6 hPa Calm     88 % 0.00 in /  0 mm
22:42 50.0 °F /  10 °C 46.6 °F /  8.1 °C 30.16 in /  1021.2 hPa Calm     88 % 0.00 in /  0 mm
22:47 49.9 °F /  9.9 °C 46.8 °F /  8.2 °C 30.16 in /  1021.2 hPa Calm     89 % 0.00 in /  0 mm
22:52 49.9 °F /  9.9 °C 46.8 °F /  8.2 °C 30.16 in /  1021.2 hPa Calm     89 % 0.00 in /  0 mm
22:58 49.7 °F /  9.8 °C 46.3 °F /  7.9 °C 30.17 in /  1021.6 hPa Calm     88 % 0.00 in /  0 mm
23:03 49.5 °F /  9.7 °C 46.4 °F /  8 °C 30.17 in /  1021.6 hPa Calm     89 % 0.00 in /  0 mm
23:07 49.2 °F /  9.6 °C 46.1 °F /  7.8 °C 30.17 in /  1021.6 hPa Calm     89 % 0.00 in /  0 mm
23:12 48.8 °F /  9.3 °C 45.4 °F /  7.4 °C 30.16 in /  1021.2 hPa Calm     88 % 0.00 in /  0 mm
23:17 48.5 °F /  9.2 °C 45.4 °F /  7.4 °C 30.16 in /  1021.2 hPa Calm     89 % 0.00 in /  0 mm
23:22 48.4 °F /  9.1 °C 45.6 °F /  7.6 °C 30.17 in /  1021.6 hPa Calm     90 % 0.00 in /  0 mm
23:27 48.2 °F /  9 °C 45.4 °F /  7.4 °C 30.17 in /  1021.6 hPa Calm     90 % 0.00 in /  0 mm
23:33 47.9 °F /  8.8 °C 44.8 °F /  7.1 °C 30.17 in /  1021.6 hPa Calm     89 % 0.00 in /  0 mm
23:38 47.6 °F /  8.7 °C 44.8 °F /  7.1 °C 30.17 in /  1021.6 hPa Calm     90 % 0.00 in /  0 mm
23:43 47.5 °F /  8.6 °C 44.7 °F /  7.1 °C 30.17 in /  1021.6 hPa Calm     90 % 0.00 in /  0 mm
23:48 47.3 °F /  8.5 °C 44.5 °F /  6.9 °C 30.17 in /  1021.6 hPa Calm     90 % 0.00 in /  0 mm
23:53 47.0 °F /  8.3 °C 44.2 °F /  6.8 °C 30.17 in /  1021.6 hPa Calm     90 % 0.00 in /  0 mm
23:58 46.6 °F /  8.1 °C 43.8 °F /  6.6 °C 30.17 in /  1021.6 hPa Calm     90 % 0.00 in /  0 mm
Park Place, Exeter, Tulare County, California, USA
Compliments of Weather Underground - 2.75 mb